Kezdőlap
METAR-TAF:

METAR-TAF

Repülőterek :

Langlade County Airport

Antigo, Wisconsin, Amerikai Egyesült Államok

földrajzi szélesség: 45-09-15N, földrajzi hosszúság: 89-06-39W, magasság: 464 m

Jelenlegi meteorológiai megfigyelések

A jelentés 19 perccel ezelõtt készült, 01:15 UTC
Északi szél 10 kt széllökések: 15 kt
Hőmérséklet 4°C
Páratartalom 100%
Légköri nyomás 1007 hPa
Látótávolság: 11.3 km
Szórványos felhőzet 800 lábon
Szakadozott felhőzet 1400 lábon
Borult 2200 lábon
enyhe esõ

METAR: KAIG 200115Z AUTO 36010G15KT 7SM -RA SCT008 BKN014 OVC022 04/04 A2973 RMK AO2 P0001 T00370035

Idő: 20:34 (01:34 UTC)


TAF: hiányzik

Meteorológiai megfigyelések és előrejelzések több, mint 4000 repülőtéren (METAR és TAF jelentéseket).

A térképen piros és sárga pontok jelzik az elérhető meteorológiai állomásokat.

Mozgassa az egeret a pont fölött, hogy megjelenjen az állomás neve.

Azután kattintson az időjárási megfigyelések és előrejelzések megtekintéséhez.

A térkép megváltoztatása: kattintson a fekete keresztel jelölt zöld gombra ráközelítéshez, a vonallal jelölt zöld gombra távolításhoz, vagy a zöld nyilakra a szomszédos térképek eléréséhez.


METAR-TAF: